sensor_id;sensor_type;location;lat;lon;timestamp;pressure;altitude;pressure_sealevel;temperature;humidity
30339;BME280;795;49.296;11.348;2023-02-12T00:01:25;98184.41;;;3.42;100.00
30339;BME280;795;49.296;11.348;2023-02-12T00:03:53;98188.19;;;3.38;100.00
30339;BME280;795;49.296;11.348;2023-02-12T00:06:20;98173.13;;;3.38;100.00
30339;BME280;795;49.296;11.348;2023-02-12T00:08:52;98187.16;;;3.40;100.00
30339;BME280;795;49.296;11.348;2023-02-12T00:11:27;98185.47;;;3.55;100.00
30339;BME280;795;49.296;11.348;2023-02-12T00:13:56;98191.41;;;3.60;100.00
30339;BME280;795;49.296;11.348;2023-02-12T00:16:28;98173.19;;;3.69;100.00
30339;BME280;795;49.296;11.348;2023-02-12T00:18:57;98176.09;;;3.65;100.00
30339;BME280;795;49.296;11.348;2023-02-12T00:21:27;98162.34;;;3.57;100.00
30339;BME280;795;49.296;11.348;2023-02-12T00:23:55;98169.81;;;3.50;100.00
30339;BME280;795;49.296;11.348;2023-02-12T00:26:23;98159.94;;;3.52;100.00
30339;BME280;795;49.296;11.348;2023-02-12T00:28:51;98190.22;;;3.65;100.00
30339;BME280;795;49.296;11.348;2023-02-12T00:31:25;98158.25;;;3.51;100.00
30339;BME280;795;49.296;11.348;2023-02-12T00:33:54;98176.84;;;3.51;100.00
30339;BME280;795;49.296;11.348;2023-02-12T00:36:25;98186.72;;;3.65;100.00
30339;BME280;795;49.296;11.348;2023-02-12T00:38:55;98196.84;;;3.89;100.00
30339;BME280;795;49.296;11.348;2023-02-12T00:41:22;98185.38;;;3.89;100.00
30339;BME280;795;49.296;11.348;2023-02-12T00:43:50;98188.03;;;3.89;100.00
30339;BME280;795;49.296;11.348;2023-02-12T00:46:17;98161.28;;;3.76;100.00
30339;BME280;795;49.296;11.348;2023-02-12T00:48:44;98192.81;;;3.82;100.00
30339;BME280;795;49.296;11.348;2023-02-12T00:51:11;98207.84;;;3.99;100.00
30339;BME280;795;49.296;11.348;2023-02-12T00:53:39;98181.06;;;3.86;100.00
30339;BME280;795;49.296;11.348;2023-02-12T00:56:06;98182.34;;;3.79;100.00
30339;BME280;795;49.296;11.348;2023-02-12T00:58:33;98180.78;;;3.60;100.00
30339;BME280;795;49.296;11.348;2023-02-12T01:01:00;98176.50;;;3.57;100.00
30339;BME280;795;49.296;11.348;2023-02-12T01:03:27;98190.69;;;3.56;100.00
30339;BME280;795;49.296;11.348;2023-02-12T01:05:54;98208.97;;;3.78;100.00
30339;BME280;795;49.296;11.348;2023-02-12T01:08:23;98216.53;;;3.70;100.00
30339;BME280;795;49.296;11.348;2023-02-12T01:11:00;98213.88;;;3.70;100.00
30339;BME280;795;49.296;11.348;2023-02-12T01:13:30;98200.25;;;3.60;100.00
30339;BME280;795;49.296;11.348;2023-02-12T01:16:22;98205.47;;;3.62;100.00
30339;BME280;795;49.296;11.348;2023-02-12T01:18:52;98196.19;;;3.53;100.00
30339;BME280;795;49.296;11.348;2023-02-12T01:21:27;98203.75;;;3.61;100.00
30339;BME280;795;49.296;11.348;2023-02-12T01:23:56;98167.72;;;3.40;100.00
30339;BME280;795;49.296;11.348;2023-02-12T01:26:24;98208.06;;;3.63;100.00
30339;BME280;795;49.296;11.348;2023-02-12T01:28:57;98187.22;;;3.56;100.00
30339;BME280;795;49.296;11.348;2023-02-12T01:31:34;98203.81;;;3.59;100.00
30339;BME280;795;49.296;11.348;2023-02-12T01:34:04;98178.78;;;3.48;100.00
30339;BME280;795;49.296;11.348;2023-02-12T01:36:32;98202.53;;;3.66;100.00
30339;BME280;795;49.296;11.348;2023-02-12T01:39:00;98184.06;;;3.65;100.00
30339;BME280;795;49.296;11.348;2023-02-12T01:41:40;98198.25;;;3.64;100.00
30339;BME280;795;49.296;11.348;2023-02-12T01:44:20;98204.31;;;3.50;100.00
30339;BME280;795;49.296;11.348;2023-02-12T01:46:56;98208.88;;;3.64;100.00
30339;BME280;795;49.296;11.348;2023-02-12T01:49:35;98191.44;;;3.43;100.00
30339;BME280;795;49.296;11.348;2023-02-12T01:52:17;98185.13;;;3.45;100.00
30339;BME280;795;49.296;11.348;2023-02-12T01:54:50;98203.47;;;3.50;100.00
30339;BME280;795;49.296;11.348;2023-02-12T01:57:19;98183.63;;;3.24;100.00
30339;BME280;795;49.296;11.348;2023-02-12T01:59:52;98201.00;;;3.29;100.00
30339;BME280;795;49.296;11.348;2023-02-12T02:02:20;98192.19;;;3.29;100.00
30339;BME280;795;49.296;11.348;2023-02-12T02:04:59;98212.16;;;3.36;100.00
30339;BME280;795;49.296;11.348;2023-02-12T02:07:29;98204.97;;;3.38;100.00
30339;BME280;795;49.296;11.348;2023-02-12T02:09:57;98220.75;;;3.41;100.00
30339;BME280;795;49.296;11.348;2023-02-12T02:12:26;98194.44;;;3.37;100.00
30339;BME280;795;49.296;11.348;2023-02-12T02:15:12;98207.13;;;3.47;100.00
30339;BME280;795;49.296;11.348;2023-02-12T02:18:32;98210.53;;;3.33;100.00
30339;BME280;795;49.296;11.348;2023-02-12T02:24:46;98223.09;;;3.30;100.00
30339;BME280;795;49.296;11.348;2023-02-12T02:27:34;98206.63;;;3.23;100.00
30339;BME280;795;49.296;11.348;2023-02-12T02:33:40;98227.06;;;3.39;100.00
30339;BME280;795;49.296;11.348;2023-02-12T02:36:26;98226.75;;;3.45;100.00
30339;BME280;795;49.296;11.348;2023-02-12T02:42:15;98222.03;;;3.50;100.00
30339;BME280;795;49.296;11.348;2023-02-12T02:47:25;98224.69;;;3.50;100.00
30339;BME280;795;49.296;11.348;2023-02-12T02:50:11;98217.56;;;3.67;100.00
30339;BME280;795;49.296;11.348;2023-02-12T02:52:49;98207.94;;;3.65;100.00
30339;BME280;795;49.296;11.348;2023-02-12T02:55:22;98208.22;;;3.60;100.00
30339;BME280;795;49.296;11.348;2023-02-12T02:57:58;98216.84;;;3.64;100.00
30339;BME280;795;49.296;11.348;2023-02-12T03:00:50;98219.44;;;3.81;100.00
30339;BME280;795;49.296;11.348;2023-02-12T03:03:43;98225.19;;;3.73;100.00
30339;BME280;795;49.296;11.348;2023-02-12T03:06:57;98223.78;;;3.66;100.00
30339;BME280;795;49.296;11.348;2023-02-12T03:09:44;98193.50;;;3.38;100.00
30339;BME280;795;49.296;11.348;2023-02-12T03:12:25;98212.81;;;3.57;100.00
30339;BME280;795;49.296;11.348;2023-02-12T03:16:10;98240.25;;;3.40;100.00
30339;BME280;795;49.296;11.348;2023-02-12T03:18:54;98228.34;;;3.14;100.00
30339;BME280;795;49.296;11.348;2023-02-12T03:21:41;98247.22;;;3.25;100.00
30339;BME280;795;49.296;11.348;2023-02-12T03:24:35;98237.56;;;3.07;100.00
30339;BME280;795;49.296;11.348;2023-02-12T03:27:20;98234.91;;;3.07;100.00
30339;BME280;795;49.296;11.348;2023-02-12T03:29:52;98231.06;;;2.96;100.00
30339;BME280;795;49.296;11.348;2023-02-12T03:32:48;98249.19;;;3.05;100.00
30339;BME280;795;49.296;11.348;2023-02-12T03:35:34;98222.91;;;2.83;100.00
30339;BME280;795;49.296;11.348;2023-02-12T03:38:29;98239.28;;;2.91;100.00
30339;BME280;795;49.296;11.348;2023-02-12T03:41:26;98260.34;;;3.11;100.00
30339;BME280;795;49.296;11.348;2023-02-12T03:44:27;98254.19;;;3.11;100.00
30339;BME280;795;49.296;11.348;2023-02-12T03:47:20;98256.59;;;3.15;100.00
30339;BME280;795;49.296;11.348;2023-02-12T03:52:39;98253.78;;;3.01;100.00
30339;BME280;795;49.296;11.348;2023-02-12T03:55:07;98230.44;;;3.08;100.00
30339;BME280;795;49.296;11.348;2023-02-12T03:57:44;98251.00;;;3.04;100.00
30339;BME280;795;49.296;11.348;2023-02-12T04:00:22;98252.78;;;3.04;100.00
30339;BME280;795;49.296;11.348;2023-02-12T04:02:51;98245.22;;;2.96;100.00
30339;BME280;795;49.296;11.348;2023-02-12T04:05:26;98262.09;;;3.12;100.00
30339;BME280;795;49.296;11.348;2023-02-12T04:07:57;98252.63;;;3.07;100.00
30339;BME280;795;49.296;11.348;2023-02-12T04:16:33;98264.53;;;3.32;100.00
30339;BME280;795;49.296;11.348;2023-02-12T04:19:04;98219.06;;;2.89;100.00
30339;BME280;795;49.296;11.348;2023-02-12T04:22:10;98268.69;;;3.21;100.00
30339;BME280;795;49.296;11.348;2023-02-12T04:31:04;98269.16;;;2.95;100.00
30339;BME280;795;49.296;11.348;2023-02-12T04:33:47;98281.88;;;3.05;100.00
30339;BME280;795;49.296;11.348;2023-02-12T04:36:32;98253.16;;;2.79;100.00
30339;BME280;795;49.296;11.348;2023-02-12T04:39:26;98279.41;;;3.02;100.00
30339;BME280;795;49.296;11.348;2023-02-12T04:41:59;98279.78;;;3.12;100.00
30339;BME280;795;49.296;11.348;2023-02-12T04:44:37;98267.75;;;2.88;100.00
30339;BME280;795;49.296;11.348;2023-02-12T04:47:04;98288.13;;;2.87;100.00
30339;BME280;795;49.296;11.348;2023-02-12T04:49:32;98287.66;;;2.96;100.00
30339;BME280;795;49.296;11.348;2023-02-12T04:51:59;98280.06;;;2.89;100.00
30339;BME280;795;49.296;11.348;2023-02-12T04:54:26;98255.81;;;2.79;100.00
30339;BME280;795;49.296;11.348;2023-02-12T04:56:52;98301.25;;;3.07;100.00
30339;BME280;795;49.296;11.348;2023-02-12T04:59:20;98269.03;;;2.98;100.00
30339;BME280;795;49.296;11.348;2023-02-12T05:01:47;98298.03;;;3.01;100.00
30339;BME280;795;49.296;11.348;2023-02-12T05:04:16;98277.41;;;2.89;100.00
30339;BME280;795;49.296;11.348;2023-02-12T05:06:45;98300.78;;;2.99;100.00
30339;BME280;795;49.296;11.348;2023-02-12T05:09:19;98259.22;;;2.81;100.00
30339;BME280;795;49.296;11.348;2023-02-12T05:11:46;98259.31;;;2.80;100.00
30339;BME280;795;49.296;11.348;2023-02-12T05:14:13;98280.41;;;3.00;100.00
30339;BME280;795;49.296;11.348;2023-02-12T05:16:41;98287.78;;;2.93;100.00
30339;BME280;795;49.296;11.348;2023-02-12T05:19:08;98229.47;;;2.76;100.00
30339;BME280;795;49.296;11.348;2023-02-12T05:21:37;98313.28;;;3.31;100.00
30339;BME280;795;49.296;11.348;2023-02-12T05:24:05;98285.41;;;3.23;100.00
30339;BME280;795;49.296;11.348;2023-02-12T05:26:32;98256.78;;;3.12;100.00
30339;BME280;795;49.296;11.348;2023-02-12T05:28:59;98288.06;;;3.23;100.00
30339;BME280;795;49.296;11.348;2023-02-12T05:31:26;98306.88;;;3.35;100.00
30339;BME280;795;49.296;11.348;2023-02-12T05:33:53;98258.81;;;3.07;100.00
30339;BME280;795;49.296;11.348;2023-02-12T05:36:23;98311.25;;;3.19;100.00
30339;BME280;795;49.296;11.348;2023-02-12T05:38:56;98311.88;;;3.24;100.00
30339;BME280;795;49.296;11.348;2023-02-12T05:41:24;98312.31;;;3.32;100.00
30339;BME280;795;49.296;11.348;2023-02-12T05:43:53;98307.78;;;3.34;100.00
30339;BME280;795;49.296;11.348;2023-02-12T05:46:21;98294.06;;;3.26;100.00
30339;BME280;795;49.296;11.348;2023-02-12T05:48:48;98293.59;;;3.18;100.00
30339;BME280;795;49.296;11.348;2023-02-12T05:51:23;98324.19;;;3.25;100.00
30339;BME280;795;49.296;11.348;2023-02-12T05:53:56;98301.56;;;3.01;100.00
30339;BME280;795;49.296;11.348;2023-02-12T05:56:29;98325.44;;;3.18;100.00
30339;BME280;795;49.296;11.348;2023-02-12T05:59:02;98315.94;;;3.14;100.00
30339;BME280;795;49.296;11.348;2023-02-12T06:01:38;98320.28;;;3.15;100.00
30339;BME280;795;49.296;11.348;2023-02-12T06:04:12;98326.00;;;3.25;100.00
30339;BME280;795;49.296;11.348;2023-02-12T06:06:39;98324.41;;;3.04;100.00
30339;BME280;795;49.296;11.348;2023-02-12T06:09:11;98303.72;;;2.93;100.00
30339;BME280;795;49.296;11.348;2023-02-12T06:11:39;98322.22;;;2.95;100.00
30339;BME280;795;49.296;11.348;2023-02-12T06:14:16;98320.22;;;3.17;100.00
30339;BME280;795;49.296;11.348;2023-02-12T06:16:46;98311.31;;;3.18;100.00
30339;BME280;795;49.296;11.348;2023-02-12T06:19:14;98320.22;;;3.17;100.00
30339;BME280;795;49.296;11.348;2023-02-12T06:21:41;98288.66;;;2.94;100.00
30339;BME280;795;49.296;11.348;2023-02-12T06:24:14;98326.22;;;3.03;100.00
30339;BME280;795;49.296;11.348;2023-02-12T06:26:42;98320.72;;;2.89;100.00
30339;BME280;795;49.296;11.348;2023-02-12T06:29:10;98335.72;;;2.90;100.00
30339;BME280;795;49.296;11.348;2023-02-12T06:31:37;98293.47;;;2.68;100.00
30339;BME280;795;49.296;11.348;2023-02-12T06:34:09;98316.66;;;2.82;100.00
30339;BME280;795;49.296;11.348;2023-02-12T06:36:40;98337.91;;;2.99;100.00
30339;BME280;795;49.296;11.348;2023-02-12T06:39:09;98315.66;;;2.85;100.00
30339;BME280;795;49.296;11.348;2023-02-12T06:41:36;98347.53;;;3.02;100.00
30339;BME280;795;49.296;11.348;2023-02-12T06:44:04;98275.44;;;2.58;100.00
30339;BME280;795;49.296;11.348;2023-02-12T06:46:31;98323.84;;;2.80;100.00
30339;BME280;795;49.296;11.348;2023-02-12T06:48:59;98317.13;;;2.73;100.00
30339;BME280;795;49.296;11.348;2023-02-12T06:51:28;98361.03;;;3.14;100.00
30339;BME280;795;49.296;11.348;2023-02-12T06:53:57;98365.03;;;3.23;100.00
30339;BME280;795;49.296;11.348;2023-02-12T06:56:26;98352.53;;;3.25;100.00
30339;BME280;795;49.296;11.348;2023-02-12T06:58:57;98364.56;;;3.32;100.00
30339;BME280;795;49.296;11.348;2023-02-12T07:01:27;98367.94;;;3.35;100.00
30339;BME280;795;49.296;11.348;2023-02-12T07:04:01;98324.13;;;3.10;100.00
30339;BME280;795;49.296;11.348;2023-02-12T07:06:32;98373.88;;;3.41;100.00
30339;BME280;795;49.296;11.348;2023-02-12T07:09:02;98349.72;;;3.28;100.00
30339;BME280;795;49.296;11.348;2023-02-12T07:11:35;98346.22;;;3.62;100.00
30339;BME280;795;49.296;11.348;2023-02-12T07:14:05;98354.56;;;3.71;100.00
30339;BME280;795;49.296;11.348;2023-02-12T07:16:32;98365.50;;;3.82;100.00
30339;BME280;795;49.296;11.348;2023-02-12T07:18:59;98358.75;;;3.92;100.00
30339;BME280;795;49.296;11.348;2023-02-12T07:21:26;98377.75;;;4.02;100.00
30339;BME280;795;49.296;11.348;2023-02-12T07:23:53;98380.63;;;3.97;100.00
30339;BME280;795;49.296;11.348;2023-02-12T07:26:22;98384.16;;;3.98;100.00
30339;BME280;795;49.296;11.348;2023-02-12T07:28:50;98366.63;;;4.11;100.00
30339;BME280;795;49.296;11.348;2023-02-12T07:31:21;98343.25;;;4.00;100.00
30339;BME280;795;49.296;11.348;2023-02-12T07:33:54;98347.88;;;4.14;100.00
30339;BME280;795;49.296;11.348;2023-02-12T07:36:25;98384.84;;;4.34;100.00
30339;BME280;795;49.296;11.348;2023-02-12T07:38:55;98383.75;;;4.38;100.00
30339;BME280;795;49.296;11.348;2023-02-12T07:41:34;98379.22;;;4.40;100.00
30339;BME280;795;49.296;11.348;2023-02-12T07:44:09;98379.81;;;4.45;100.00
30339;BME280;795;49.296;11.348;2023-02-12T07:46:47;98378.19;;;4.43;100.00
30339;BME280;795;49.296;11.348;2023-02-12T07:49:20;98385.31;;;4.42;100.00
30339;BME280;795;49.296;11.348;2023-02-12T07:51:49;98350.53;;;4.14;100.00
30339;BME280;795;49.296;11.348;2023-02-12T07:54:16;98384.63;;;4.22;100.00
30339;BME280;795;49.296;11.348;2023-02-12T07:56:44;98394.97;;;4.43;100.00
30339;BME280;795;49.296;11.348;2023-02-12T07:59:16;98395.16;;;4.40;100.00
30339;BME280;795;49.296;11.348;2023-02-12T08:01:52;98394.31;;;4.40;100.00
30339;BME280;795;49.296;11.348;2023-02-12T08:04:24;98368.28;;;4.29;100.00
30339;BME280;795;49.296;11.348;2023-02-12T08:06:54;98401.47;;;4.70;100.00
30339;BME280;795;49.296;11.348;2023-02-12T08:09:27;98399.56;;;4.72;100.00
30339;BME280;795;49.296;11.348;2023-02-12T08:11:56;98389.72;;;4.75;100.00
30339;BME280;795;49.296;11.348;2023-02-12T08:14:27;98374.59;;;4.91;100.00
30339;BME280;795;49.296;11.348;2023-02-12T08:16:56;98366.63;;;4.75;100.00
30339;BME280;795;49.296;11.348;2023-02-12T08:19:23;98389.28;;;4.98;100.00
30339;BME280;795;49.296;11.348;2023-02-12T08:21:55;98391.59;;;5.04;100.00
30339;BME280;795;49.296;11.348;2023-02-12T08:24:24;98386.47;;;5.01;100.00
30339;BME280;795;49.296;11.348;2023-02-12T08:26:51;98356.22;;;5.02;100.00
30339;BME280;795;49.296;11.348;2023-02-12T08:29:27;98369.69;;;5.14;100.00
30339;BME280;795;49.296;11.348;2023-02-12T08:31:59;98391.31;;;5.24;100.00
30339;BME280;795;49.296;11.348;2023-02-12T08:34:34;98376.47;;;5.20;100.00
30339;BME280;795;49.296;11.348;2023-02-12T08:37:04;98352.69;;;5.17;100.00
30339;BME280;795;49.296;11.348;2023-02-12T08:39:32;98363.59;;;5.28;100.00
30339;BME280;795;49.296;11.348;2023-02-12T08:42:00;98377.53;;;5.47;100.00
30339;BME280;795;49.296;11.348;2023-02-12T08:44:28;98367.81;;;5.46;100.00
30339;BME280;795;49.296;11.348;2023-02-12T08:46:55;98375.09;;;5.58;100.00
30339;BME280;795;49.296;11.348;2023-02-12T08:49:27;98368.75;;;5.75;100.00
30339;BME280;795;49.296;11.348;2023-02-12T08:51:58;98367.50;;;5.96;100.00
30339;BME280;795;49.296;11.348;2023-02-12T08:54:28;98359.63;;;6.09;100.00
30339;BME280;795;49.296;11.348;2023-02-12T08:57:00;98368.78;;;6.19;100.00
30339;BME280;795;49.296;11.348;2023-02-12T08:59:28;98368.41;;;6.25;100.00
30339;BME280;795;49.296;11.348;2023-02-12T09:04:01;98349.81;;;5.65;100.00
30339;BME280;795;49.296;11.348;2023-02-12T09:06:34;98367.44;;;5.82;100.00
30339;BME280;795;49.296;11.348;2023-02-12T09:09:02;98359.25;;;6.00;100.00
30339;BME280;795;49.296;11.348;2023-02-12T09:11:29;98368.47;;;6.23;100.00
30339;BME280;795;49.296;11.348;2023-02-12T09:14:09;98375.44;;;6.26;100.00
30339;BME280;795;49.296;11.348;2023-02-12T09:16:37;98352.13;;;6.29;100.00
30339;BME280;795;49.296;11.348;2023-02-12T09:19:08;98368.38;;;6.67;100.00
30339;BME280;795;49.296;11.348;2023-02-12T09:21:36;98338.97;;;6.26;100.00
30339;BME280;795;49.296;11.348;2023-02-12T09:24:03;98346.84;;;6.28;100.00
30339;BME280;795;49.296;11.348;2023-02-12T09:26:31;98364.09;;;6.50;100.00
30339;BME280;795;49.296;11.348;2023-02-12T09:29:01;98348.38;;;6.60;100.00
30339;BME280;795;49.296;11.348;2023-02-12T09:31:31;98354.16;;;7.34;100.00
30339;BME280;795;49.296;11.348;2023-02-12T09:34:05;98362.44;;;7.95;100.00
30339;BME280;795;49.296;11.348;2023-02-12T09:36:33;98353.81;;;8.30;100.00
30339;BME280;795;49.296;11.348;2023-02-12T09:39:02;98350.06;;;8.94;100.00
30339;BME280;795;49.296;11.348;2023-02-12T09:44:28;98359.69;;;9.32;100.00
30339;BME280;795;49.296;11.348;2023-02-12T09:47:31;98372.63;;;8.16;100.00
30339;BME280;795;49.296;11.348;2023-02-12T09:53:04;98356.97;;;7.97;100.00
30339;BME280;795;49.296;11.348;2023-02-12T09:55:34;98341.47;;;8.02;100.00
30339;BME280;795;49.296;11.348;2023-02-12T09:58:13;98348.41;;;8.80;100.00
30339;BME280;795;49.296;11.348;2023-02-12T10:00:42;98335.13;;;8.79;100.00
30339;BME280;795;49.296;11.348;2023-02-12T10:03:16;98350.91;;;9.89;100.00
30339;BME280;795;49.296;11.348;2023-02-12T10:06:04;98344.16;;;9.72;100.00
30339;BME280;795;49.296;11.348;2023-02-12T10:12:07;98362.53;;;9.18;100.00
30339;BME280;795;49.296;11.348;2023-02-12T10:15:13;98363.91;;;9.48;100.00
30339;BME280;795;49.296;11.348;2023-02-12T10:17:58;98370.38;;;9.09;100.00
30339;BME280;795;49.296;11.348;2023-02-12T10:21:20;98373.56;;;8.78;100.00
30339;BME280;795;49.296;11.348;2023-02-12T10:27:41;98380.41;;;8.19;100.00
30339;BME280;795;49.296;11.348;2023-02-12T10:33:43;98380.06;;;7.19;100.00
30339;BME280;795;49.296;11.348;2023-02-12T10:36:43;98383.81;;;7.44;100.00
30339;BME280;795;49.296;11.348;2023-02-12T10:39:46;98371.25;;;8.23;100.00
30339;BME280;795;49.296;11.348;2023-02-12T10:45:13;98366.28;;;9.16;100.00
30339;BME280;795;49.296;11.348;2023-02-12T10:47:41;98368.44;;;9.11;100.00
30339;BME280;795;49.296;11.348;2023-02-12T10:50:48;98375.66;;;9.10;100.00
30339;BME280;795;49.296;11.348;2023-02-12T10:53:40;98367.47;;;8.76;100.00
30339;BME280;795;49.296;11.348;2023-02-12T11:01:33;98363.22;;;9.09;100.00
30339;BME280;795;49.296;11.348;2023-02-12T11:07:07;98372.25;;;8.96;100.00
30339;BME280;795;49.296;11.348;2023-02-12T11:09:48;98362.81;;;9.26;100.00
30339;BME280;795;49.296;11.348;2023-02-12T11:14:56;98378.84;;;9.63;100.00
30339;BME280;795;49.296;11.348;2023-02-12T11:17:41;98374.97;;;9.43;100.00
30339;BME280;795;49.296;11.348;2023-02-12T11:23:04;98373.03;;;9.45;100.00
30339;BME280;795;49.296;11.348;2023-02-12T11:25:36;98379.41;;;9.55;100.00
30339;BME280;795;49.296;11.348;2023-02-12T11:28:17;98340.75;;;9.47;100.00
30339;BME280;795;49.296;11.348;2023-02-12T11:33:38;98353.72;;;9.87;97.92
30339;BME280;795;49.296;11.348;2023-02-12T11:36:22;98349.06;;;9.55;98.88
30339;BME280;795;49.296;11.348;2023-02-12T11:38:58;98361.50;;;9.56;99.28
30339;BME280;795;49.296;11.348;2023-02-12T11:41:35;98340.50;;;9.73;100.00
30339;BME280;795;49.296;11.348;2023-02-12T11:44:35;98357.22;;;10.23;97.72
30339;BME280;795;49.296;11.348;2023-02-12T11:47:09;98356.81;;;11.38;92.88
30339;BME280;795;49.296;11.348;2023-02-12T11:49:51;98360.75;;;12.39;81.32
30339;BME280;795;49.296;11.348;2023-02-12T11:52:29;98364.91;;;12.22;76.86
30339;BME280;795;49.296;11.348;2023-02-12T11:55:04;98371.56;;;12.69;76.53
30339;BME280;795;49.296;11.348;2023-02-12T12:00:43;98342.91;;;12.17;74.38
30339;BME280;795;49.296;11.348;2023-02-12T12:06:45;98353.47;;;12.30;75.75
30339;BME280;795;49.296;11.348;2023-02-12T12:14:58;98356.81;;;12.43;73.89
30339;BME280;795;49.296;11.348;2023-02-12T12:17:56;98343.94;;;12.46;73.21
30339;BME280;795;49.296;11.348;2023-02-12T12:20:55;98343.41;;;12.83;70.95
30339;BME280;795;49.296;11.348;2023-02-12T12:24:18;98345.00;;;12.95;70.46
30339;BME280;795;49.296;11.348;2023-02-12T12:26:57;98351.38;;;12.94;69.65
30339;BME280;795;49.296;11.348;2023-02-12T12:29:52;98353.16;;;12.84;70.84
30339;BME280;795;49.296;11.348;2023-02-12T12:32:29;98344.72;;;12.98;68.76
30339;BME280;795;49.296;11.348;2023-02-12T12:34:57;98334.38;;;12.93;69.01
30339;BME280;795;49.296;11.348;2023-02-12T12:40:46;98348.84;;;12.72;69.72
30339;BME280;795;49.296;11.348;2023-02-12T12:49:30;98329.41;;;12.38;72.85
30339;BME280;795;49.296;11.348;2023-02-12T12:55:38;98340.31;;;12.57;70.22
30339;BME280;795;49.296;11.348;2023-02-12T12:58:38;98335.94;;;12.15;71.96
30339;BME280;795;49.296;11.348;2023-02-12T13:06:13;98340.09;;;12.79;69.99
30339;BME280;795;49.296;11.348;2023-02-12T13:09:19;98324.25;;;12.55;70.45
30339;BME280;795;49.296;11.348;2023-02-12T13:12:42;98309.69;;;12.98;69.88
30339;BME280;795;49.296;11.348;2023-02-12T13:15:59;98330.38;;;12.88;70.02
30339;BME280;795;49.296;11.348;2023-02-12T13:18:38;98327.63;;;12.48;72.33
30339;BME280;795;49.296;11.348;2023-02-12T13:21:46;98339.47;;;12.96;70.84
30339;BME280;795;49.296;11.348;2023-02-12T13:24:45;98333.94;;;13.76;67.12
30339;BME280;795;49.296;11.348;2023-02-12T13:27:24;98336.84;;;14.59;64.02
30339;BME280;795;49.296;11.348;2023-02-12T13:30:04;98323.38;;;14.86;61.24
30339;BME280;795;49.296;11.348;2023-02-12T13:33:10;98336.84;;;14.96;59.23
30339;BME280;795;49.296;11.348;2023-02-12T13:35:47;98336.41;;;15.00;59.69
30339;BME280;795;49.296;11.348;2023-02-12T13:38:26;98343.75;;;14.81;60.64
30339;BME280;795;49.296;11.348;2023-02-12T13:41:07;98342.44;;;14.10;62.79
30339;BME280;795;49.296;11.348;2023-02-12T13:58:55;98322.00;;;11.68;75.01
30339;BME280;795;49.296;11.348;2023-02-12T14:01:44;98315.78;;;11.57;76.61
30339;BME280;795;49.296;11.348;2023-02-12T14:04:34;98331.56;;;11.07;80.82
30339;BME280;795;49.296;11.348;2023-02-12T14:07:05;98328.50;;;11.23;81.08
30339;BME280;795;49.296;11.348;2023-02-12T14:15:33;98317.69;;;10.25;86.75
30339;BME280;795;49.296;11.348;2023-02-12T14:20:37;98327.00;;;10.54;90.17
30339;BME280;795;49.296;11.348;2023-02-12T14:23:27;98310.50;;;10.14;90.64
30339;BME280;795;49.296;11.348;2023-02-12T14:41:51;98291.94;;;8.83;100.00
30339;BME280;795;49.296;11.348;2023-02-12T14:46:56;98303.91;;;8.90;100.00
30339;BME280;795;49.296;11.348;2023-02-12T14:51:59;98312.88;;;8.65;100.00
30339;BME280;795;49.296;11.348;2023-02-12T14:54:40;98280.91;;;8.26;100.00
30339;BME280;795;49.296;11.348;2023-02-12T14:57:36;98299.22;;;8.32;100.00
30339;BME280;795;49.296;11.348;2023-02-12T15:02:52;98317.44;;;8.27;100.00
30339;BME280;795;49.296;11.348;2023-02-12T15:05:31;98320.84;;;8.29;100.00
30339;BME280;795;49.296;11.348;2023-02-12T15:09:10;98318.38;;;8.39;100.00
30339;BME280;795;49.296;11.348;2023-02-12T15:11:49;98300.09;;;8.33;100.00
30339;BME280;795;49.296;11.348;2023-02-12T15:14:28;98309.06;;;8.32;100.00
30339;BME280;795;49.296;11.348;2023-02-12T15:17:14;98282.72;;;8.26;100.00
30339;BME280;795;49.296;11.348;2023-02-12T15:20:18;98303.59;;;8.33;100.00
30339;BME280;795;49.296;11.348;2023-02-12T15:22:46;98297.50;;;8.31;100.00
30339;BME280;795;49.296;11.348;2023-02-12T15:28:22;98300.47;;;8.14;100.00
30339;BME280;795;49.296;11.348;2023-02-12T15:30:54;98291.63;;;7.88;100.00
30339;BME280;795;49.296;11.348;2023-02-12T15:33:31;98298.25;;;7.83;100.00
30339;BME280;795;49.296;11.348;2023-02-12T15:36:02;98292.50;;;7.89;100.00
30339;BME280;795;49.296;11.348;2023-02-12T15:38:40;98299.00;;;7.97;100.00
30339;BME280;795;49.296;11.348;2023-02-12T15:44:01;98303.19;;;7.89;100.00
30339;BME280;795;49.296;11.348;2023-02-12T15:46:29;98301.16;;;7.80;100.00
30339;BME280;795;49.296;11.348;2023-02-12T15:48:56;98277.16;;;7.66;100.00
30339;BME280;795;49.296;11.348;2023-02-12T15:51:36;98291.59;;;7.63;100.00
30339;BME280;795;49.296;11.348;2023-02-12T15:54:07;98297.25;;;7.59;100.00
30339;BME280;795;49.296;11.348;2023-02-12T15:56:39;98294.25;;;7.63;100.00
30339;BME280;795;49.296;11.348;2023-02-12T15:59:21;98296.09;;;7.63;100.00
30339;BME280;795;49.296;11.348;2023-02-12T16:02:00;98285.06;;;7.55;100.00
30339;BME280;795;49.296;11.348;2023-02-12T16:04:34;98294.13;;;7.40;100.00
30339;BME280;795;49.296;11.348;2023-02-12T16:07:11;98282.84;;;7.09;100.00
30339;BME280;795;49.296;11.348;2023-02-12T16:09:42;98278.25;;;6.85;100.00
30339;BME280;795;49.296;11.348;2023-02-12T16:12:16;98278.06;;;6.74;100.00
30339;BME280;795;49.296;11.348;2023-02-12T16:14:55;98283.16;;;6.64;100.00
30339;BME280;795;49.296;11.348;2023-02-12T16:17:32;98269.06;;;6.62;100.00
30339;BME280;795;49.296;11.348;2023-02-12T16:20:21;98281.84;;;6.57;100.00
30339;BME280;795;49.296;11.348;2023-02-12T16:22:53;98285.47;;;6.56;100.00
30339;BME280;795;49.296;11.348;2023-02-12T16:25:24;98291.59;;;6.44;100.00
30339;BME280;795;49.296;11.348;2023-02-12T16:28:13;98295.88;;;6.32;100.00